Werte bis 5 Uhr SommerzeitDiagramme Beberbeck: Tagesdaten Monatsdaten WindroseCSV-Datei: Beberbeck21.csv

Wetterdaten 2021 Station: Beberbeck
Temperaturen in °C relative Nieder- Global- Wind Wind Wind- Sonnen-
Datum Boden Boden Luft Luft Luft Luft Feuchte schlag strahlung max richtung schein
20 cm 5 cm 20 cm 2 m 2 m max 2 m min % mm W/m2*d m/s m/s ° h

06.05.2021 8,0 7,6 1,0 1,9 3,4 0,7 90 0,0 0 1,5 2,9 218 ---
05.05.2021 8,0 7,9 6,8 6,5 9,7 3,0 72 0,0 3454 5,3 17,8 242 8,9
04.05.2021 8,2 8,2 9,9 9,6 14,1 7,2 62 0,0 3018 7,3 21,9 220 8,0
03.05.2021 8,2 8,1 7,6 7,0 12,3 -0,1 67 0,0 4365 2,8 14,1 221 9,9
02.05.2021 8,6 8,7 6,7 6,4 10,6 3,8 76 0,0 3672 3,4 12,7 293 9,2
01.05.2021 8,5 8,8 7,8 7,6 12,0 3,3 82 0,0 3555 1,3 6,5 313 10,5
30.04.2021 8,7 8,7 7,1 6,9 9,2 4,4 88 0,0 1161 1,7 9,8 271 2,9
29.04.2021 9,1 9,8 10,2 9,7 14,2 6,6 81 4,4 3992 3,7 14,3 223 8,4
28.04.2021 8,3 8,9 11,6 11,5 20,3 -1,5 47 0,0 6058 2,0 12,3 97 9,8
27.04.2021 8,0 8,4 7,9 7,3 13,3 -2,0 47 0,0 6915 3,1 11,3 87 10,9
26.04.2021 7,7 8,0 6,0 5,7 13,3 -3,6 54 0,0 6716 1,6 8,5 37 11,0
25.04.2021 7,8 7,9 3,5 3,4 11,1 -3,5 74 0,0 5242 2,1 8,9 3 11,6
24.04.2021 7,9 8,2 4,2 4,3 11,1 -2,8 78 0,0 5600 1,5 9,0 352 10,7
23.04.2021 7,9 8,1 5,0 5,0 12,4 -1,8 76 0,0 4945 1,8 8,3 306 9,5
22.04.2021 8,3 8,5 5,2 5,2 10,6 -1,3 68 0,0 5067 2,7 10,2 322 11,1
21.04.2021 8,3 8,9 8,2 8,2 16,2 -0,5 73 0,0 5489 2,2 9,7 349 10,4
20.04.2021 7,8 8,7 9,9 9,6 16,8 3,7 80 0,0 5099 1,5 7,1 269 10,5
19.04.2021 7,3 8,0 8,7 8,6 14,3 3,9 85 0,2 3112 1,3 6,2 58 9,0
18.04.2021 6,5 7,0 7,7 7,7 14,4 1,5 85 1,8 3121 1,4 8,3 350 8,1
17.04.2021 6,2 6,4 5,1 5,3 9,8 -1,1 72 0,0 2288 1,6 7,6 2 6,8
16.04.2021 5,7 6,0 5,7 5,4 10,9 -0,7 66 0,0 4481 2,3 7,9 31 9,9
15.04.2021 5,4 5,3 1,7 1,8 7,3 -3,8 82 0,0 3608 1,4 10,8 29 8,8
14.04.2021 5,5 5,4 1,0 0,9 7,9 -3,7 90 0,9 3942 1,3 11,6 105 9,9
13.04.2021 5,6 5,3 2,0 1,9 8,0 -3,2 83 0,0 3794 1,9 12,1 286 9,2
12.04.2021 5,8 5,6 3,2 2,7 7,5 -0,7 85 0,2 3536 2,3 8,4 291 8,6
11.04.2021 6,3 6,5 5,5 5,7 10,6 0,3 95 10,5 747 1,9 7,5 231 0,6
10.04.2021 5,7 6,1 6,4 6,2 9,4 2,2 92 10,1 2011 1,9 7,0 110 6,1
09.04.2021 4,8 4,8 6,0 5,8 11,9 0,8 68 0,1 5088 3,6 10,9 226 10,3
08.04.2021 4,6 4,1 2,1 1,8 5,3 -1,1 80 0,0 2300 3,4 9,5 258 8,3
07.04.2021 4,9 4,1 0,8 0,6 3,7 -1,3 89 3,1 1509 3,8 10,7 266 4,7
06.04.2021 5,4 4,5 0,5 0,0 3,8 -2,8 88 1,2 3888 3,9 14,1 274 8,2
05.04.2021 6,3 5,6 1,6 1,6 5,3 -1,1 84 3,4 1988 4,2 15,5 257 5,7
04.04.2021 7,2 6,8 3,6 3,5 5,7 0,2 80 0,0 1674 2,2 6,9 295 6,6
03.04.2021 7,6 7,7 4,8 4,9 9,8 1,4 77 0,0 3838 2,6 9,6 344 8,0
02.04.2021 8,2 8,5 5,8 5,5 9,2 2,4 76 0,0 3422 3,4 11,3 352 6,8
01.04.2021 8,2 9,1 10,2 10,4 19,7 4,4 72 0,0 4640 2,5 9,9 329 9,4
31.03.2021 7,5 8,3 11,6 11,9 24,4 0,2 62 0,0 5289 1,1 5,9 185 9,6
30.03.2021 6,9 7,7 9,9 10,5 22,2 0,0 61 0,0 5296 0,7 4,7 329 9,6
29.03.2021 6,2 7,0 11,7 12,0 20,6 4,8 57 0,0 5048 3,0 11,1 218 10,0
28.03.2021 5,5 5,3 6,0 6,3 12,2 -1,0 77 0,0 2443 3,4 12,2 211 8,1
27.03.2021 6,3 6,3 4,7 4,9 9,8 -0,1 82 2,6 2525 4,0 20,2 241 6,3
26.03.2021 6,2 7,0 9,8 9,6 14,5 5,0 76 0,0 3842 2,6 12,7 198 8,7
25.03.2021 5,4 5,7 6,9 7,1 15,0 -1,0 80 0,0 3178 1,1 5,6 264 9,3
24.03.2021 4,8 5,0 5,4 5,4 14,8 -2,6 81 0,0 4857 1,9 7,5 199 9,2
23.03.2021 4,7 4,9 4,8 4,8 9,8 -0,8 84 0,0 1865 1,3 6,3 262 6,5
22.03.2021 4,4 4,5 3,9 3,9 7,2 1,6 87 0,2 1611 2,6 8,4 330 5,2
21.03.2021 4,2 4,3 4,1 4,2 7,0 2,5 81 0,0 2171 4,5 14,1 310 7,6
20.03.2021 4,0 3,7 0,6 0,4 4,4 -5,1 61 0,0 3753 1,6 6,7 312 8,7
19.03.2021 4,0 4,0 1,9 1,6 5,8 -1,8 81 0,1 3949 3,5 12,6 21 8,5
18.03.2021 3,9 3,5 0,5 0,4 5,4 -3,8 91 0,8 1977 1,1 6,7 318 5,3
17.03.2021 4,3 4,0 1,0 1,1 5,0 -2,5 87 0,0 1429 1,3 5,1 330 4,9
16.03.2021 4,6 4,5 3,0 3,1 7,2 -1,4 85 0,0 1933 2,8 11,2 322 5,3
15.03.2021 4,6 4,6 3,8 3,8 6,4 2,0 91 6,7 2117 3,8 13,8 273 6,6
14.03.2021 4,6 4,5 4,3 4,3 6,8 2,7 83 0,6 1589 4,3 11,9 250 5,0
13.03.2021 4,8 4,7 4,7 5,0 7,3 3,7 85 2,0 1634 6,7 23,1 217 5,3
12.03.2021 4,8 4,8 5,2 5,3 8,9 2,4 79 7,1 2182 5,5 14,4 228 6,0
11.03.2021 4,4 4,7 6,7 7,2 13,1 4,3 82 4,2 1632 6,9 20,5 219 3,7
10.03.2021 3,8 3,8 4,2 4,0 7,2 1,1 89 0,0 1915 2,3 11,0 191 5,8
09.03.2021 3,8 3,4 0,9 0,7 2,2 -1,0 96 6,6 798 1,6 5,7 194 2,1
08.03.2021 3,7 3,7 1,9 1,9 7,3 -1,7 80 0,7 2455 1,1 3,9 298 5,1
07.03.2021 3,8 3,2 -0,8 -0,7 3,8 -5,5 85 0,1 2590 1,3 7,8 300 7,8
06.03.2021 4,3 3,8 -1,2 -1,0 6,9 -6,7 84 0,0 3539 0,7 5,0 327 8,3
05.03.2021 4,7 4,7 1,4 1,1 5,2 -4,5 80 0,1 3791 2,8 8,7 16 8,2
04.03.2021 5,0 4,8 2,6 2,9 7,2 1,2 99 4,2 666 1,3 6,8 340 1,3
03.03.2021 5,0 5,0 3,8 4,5 13,7 -2,4 87 0,0 2610 1,1 5,9 219 8,1
02.03.2021 5,0 5,1 3,1 3,6 15,9 -2,8 87 0,2 3499 0,5 3,7 218 8,3
01.03.2021 5,3 5,5 3,5 3,4 10,5 -0,1 95 0,0 1909 1,3 4,3 87 5,9
28.02.2021 5,2 5,5 4,2 4,0 8,5 0,0 94 0,0 2618 1,1 5,1 1 7,0
27.02.2021 5,4 5,1 2,3 2,3 4,2 -0,9 97 0,0 780 1,2 5,9 332 2,4
26.02.2021 6,1 6,4 5,7 6,2 9,3 1,8 87 0,0 1229 1,9 7,8 346 3,0
25.02.2021 6,0 6,7 9,7 10,7 18,6 4,0 78 0,0 2934 1,6 7,1 207 7,7
24.02.2021 5,4 6,3 11,5 12,3 17,5 8,0 76 0,0 2805 3,0 8,3 197 7,8
23.02.2021 4,5 5,2 10,0 10,4 16,4 5,0 76 0,0 2648 3,0 7,8 201 7,5
22.02.2021 3,9 4,1 5,7 6,4 13,2 -1,2 80 0,0 2856 2,8 11,2 202 7,4
21.02.2021 3,7 4,4 9,3 10,4 16,1 2,0 64 0,0 3112 3,2 11,1 190 8,0
20.02.2021 2,7 3,1 7,5 8,4 14,2 3,6 81 0,0 2579 3,1 9,1 197 7,1
19.02.2021 1,8 1,9 4,2 4,8 8,4 -0,1 86 0,0 2739 2,6 13,2 202 7,5
18.02.2021 1,7 1,2 4,0 5,4 8,1 1,6 84 0,0 1661 2,9 8,5 190 5,4
17.02.2021 1,8 1,3 2,9 4,4 7,4 2,0 92 0,0 1381 2,5 7,2 203 4,9
16.02.2021 2,0 1,5 1,9 2,5 5,6 0,0 95 0,3 1491 3,0 8,2 199 5,5
15.02.2021 2,0 1,5 -3,9 -2,4 0,0 -8,1 68 0,0 832 3,4 13,1 188 2,3
14.02.2021 2,1 1,6 -14,6 -11,6 0,1 -22,8 77 0,0 3149 0,6 5,3 268 8,0
13.02.2021 2,2 1,7 -15,1 -12,2 -1,0 -23,1 84 0,1 3328 0,9 5,9 56 8,2
12.02.2021 2,3 1,8 -16,1 -14,2 -4,0 -22,5 85 0,0 3097 1,3 8,0 57 7,9
11.02.2021 2,4 1,9 -8,4 -7,7 -1,5 -18,8 86 0,0 2001 1,4 5,6 --- 6,2
10.02.2021 2,5 2,0 -14,3 -14,2 -4,7 -25,8 88 0,0 1334 0,9 5,8 25 5,3
09.02.2021 2,7 2,2 -11,8 -12,3 -6,9 -20,5 86 0,0 2289 0,9 5,4 358 6,9
08.02.2021 2,9 2,4 -8,2 -8,9 -7,0 -10,9 88 0,0 1354 3,1 8,6 49 4,5
07.02.2021 3,3 2,7 -5,6 -5,6 -2,3 -7,1 90 0,0 425 7,5 22,5 85 0,1
06.02.2021 3,8 3,7 0,9 0,9 4,0 -2,3 97 0,0 300 3,9 16,8 78 ---
05.02.2021 3,9 3,8 3,4 3,8 5,3 0,7 94 0,0 343 0,9 4,4 113 ---
04.02.2021 4,0 4,4 5,2 5,6 7,7 0,3 90 0,0 984 2,6 9,5 264 2,6
03.02.2021 3,1 3,6 7,2 7,8 10,0 6,5 96 4,8 273 3,3 11,1 207 ---
02.02.2021 2,2 2,0 3,2 3,4 7,0 1,2 99 2,7 487 2,4 6,9 206 0,7
01.02.2021 2,0 1,5 0,2 0,2 4,2 -2,1 93 0,5 890 1,6 6,0 149 2,8
31.01.2021 2,3 1,8 -2,1 -2,0 2,2 -5,9 83 0,0 2011 1,8 7,1 100 6,3
30.01.2021 2,6 2,5 0,1 0,1 5,9 -1,8 91 2,1 782 3,5 12,4 40 2,3
29.01.2021 2,2 1,9 2,5 3,0 6,8 0,4 98 8,1 396 1,9 13,1 209 ---
28.01.2021 2,3 1,8 0,8 1,0 1,8 0,0 100 6,2 355 2,0 5,6 206 ---
27.01.2021 2,4 1,8 -0,6 -0,3 1,1 -3,0 98 0,0 629 3,4 9,2 197 1,4
26.01.2021 2,5 1,8 -0,3 -0,2 1,1 -3,2 97 0,0 428 3,0 11,2 241 0,3
25.01.2021 2,8 2,2 -3,0 -2,5 2,3 -5,0 97 0,3 1255 0,7 3,3 238 5,0
24.01.2021 3,2 2,6 0,1 0,2 1,0 -2,1 98 1,1 438 1,8 6,6 348 0,4
23.01.2021 3,5 3,0 0,6 0,9 3,5 -1,3 97 0,0 828 1,8 8,7 189 2,9
22.01.2021 3,8 4,0 3,9 4,3 9,1 -1,3 91 0,0 579 3,8 14,9 220 1,8
21.01.2021 3,2 3,3 6,2 6,8 9,4 4,6 75 0,0 693 7,0 20,5 201 2,2
20.01.2021 2,7 2,6 4,1 4,6 7,5 1,4 80 0,1 633 5,5 12,6 197 1,4
19.01.2021 2,3 1,9 2,2 2,7 5,3 0,5 95 5,3 150 5,4 11,7 204 ---
18.01.2021 2,2 1,7 1,1 1,5 2,7 -0,7 97 2,7 360 2,4 6,3 212 ---
17.01.2021 2,3 1,7 -1,9 -2,1 -0,7 -3,4 93 0,0 698 2,2 5,9 190 2,9
16.01.2021 2,5 1,8 -1,9 -2,0 -0,5 -3,0 81 0,0 439 2,1 6,8 228 ---
15.01.2021 2,7 2,1 -1,9 -1,6 -0,1 -5,0 93 0,0 403 2,0 6,2 2 0,3
14.01.2021 2,7 2,2 -0,5 -0,2 0,7 -0,8 90 0,3 511 2,4 13,4 350 1,0
13.01.2021 2,9 2,3 0,8 1,4 2,5 0,1 90 1,4 280 4,9 14,0 263 0,1
12.01.2021 3,0 2,4 0,6 1,0 2,9 0,0 98 6,7 329 4,2 9,4 232 ---
11.01.2021 3,1 2,5 -0,4 -0,5 0,5 -1,5 90 0,0 737 4,2 11,0 199 2,9
10.01.2021 3,2 2,7 -0,9 -0,7 1,7 -2,5 97 1,7 719 1,4 3,9 201 2,8
09.01.2021 3,2 2,7 -1,2 -0,9 0,5 -3,4 97 1,3 475 0,4 2,7 253 ---
08.01.2021 3,2 2,6 -0,2 -0,2 0,5 -1,1 99 2,1 350 1,0 4,3 262 ---
07.01.2021 3,4 2,7 -0,2 -0,2 0,9 -0,8 97 0,5 339 2,1 6,1 224 0,4
06.01.2021 3,5 3,0 0,5 0,6 1,3 -0,6 98 0,7 152 2,4 6,1 341 ---
05.01.2021 3,6 3,0 0,3 0,3 1,2 -0,1 98 0,1 191 2,4 6,7 32 ---
04.01.2021 3,7 3,1 -0,1 -0,1 0,4 -0,3 98 1,5 345 1,8 5,1 31 ---
03.01.2021 3,9 3,4 0,6 0,8 1,8 -0,4 92 0,8 359 3,2 10,6 31 0,1
02.01.2021 3,9 3,4 1,4 1,5 3,2 0,6 94 0,0 371 1,1 4,2 205 ---
01.01.2021 3,9 3,3 0,5 0,5 2,7 -0,4 98 0,3 426 0,8 3,6 233 0,8

Mittelwerte (Temperaturen, Strahlung, rel. Feuchte, Wind), Summe (Regen) für 2021
4,7 4,6 2,7 2,9 84 124 2.254 2,5

Landesbetrieb Landwirtschaft Hessen 2009

      Werte bis 5 Uhr SommerzeitCSV-Datei: Beberbeck21.csvDiagramm: Beberbeck